Time;durP1;ratioP1;P1;durP2;ratioP2;P2;SDS_P1;SDS_P2;PMS_P1;PMS_P2;Temp;Humidity;BMP_temperature;BMP_pressure;BME280_temperature;BME280_humidity;BME280_pressure;Samples;Min_cycle;Max_cycle;Signal;HPM_P1;HPM_P2
2023/04/28 00:00:03;;;;;;;4.30;2.42;;;;;;;12.10;51.26;98403.13;5032738;28;20205;-62
2023/04/28 00:02:28;;;;;;;2.58;2.17;;;;;;;11.66;50.13;98326.97;5032562;28;20179;-63
2023/04/28 00:04:54;;;;;;;2.40;2.20;;;;;;;12.17;50.07;98406.06;5032573;28;20194;-62
2023/04/28 00:07:20;;;;;;;4.72;2.47;;;;;;;12.13;55.25;98407.25;5032586;28;20265;-62
2023/04/28 00:09:45;;;;;;;4.18;2.35;;;;;;;11.37;56.37;98310.16;5032503;28;20190;-62
2023/04/28 00:12:11;;;;;;;4.22;3.03;;;;;;;11.74;58.20;98398.03;5032748;28;20296;-62
2023/04/28 00:14:36;;;;;;;3.92;2.22;;;;;;;11.65;59.42;98384.94;5032393;28;20719;-62
2023/04/28 00:17:02;;;;;;;2.83;2.40;;;;;;;11.17;58.95;98315.94;5032415;28;20198;-62
2023/04/28 00:19:27;;;;;;;2.40;2.17;;;;;;;11.23;60.02;98357.78;5032386;28;20178;-62
2023/04/28 00:21:53;;;;;;;3.97;2.30;;;;;;;10.86;60.82;98309.53;5032230;28;20661;-62
2023/04/28 00:24:19;;;;;;;3.05;2.25;;;;;;;11.05;61.67;98355.66;5032243;28;20245;-62
2023/04/28 00:26:44;;;;;;;2.17;2.00;;;;;;;10.90;60.33;98328.25;5048800;28;20182;-62
2023/04/28 00:29:10;;;;;;;2.65;2.45;;;;;;;10.83;62.21;98348.59;5054530;28;20170;-62
2023/04/28 00:31:35;;;;;;;2.28;2.17;;;;;;;11.06;61.56;98394.41;5054460;28;20244;-62
2023/04/28 00:34:01;;;;;;;2.83;2.60;;;;;;;10.92;61.23;98373.81;5054434;28;20177;-62
2023/04/28 00:36:30;;;;;;;2.38;2.15;;;;;;;10.75;62.11;98353.47;5054334;28;20260;-62
2023/04/28 00:38:56;;;;;;;3.53;2.15;;;;;;;10.43;62.18;98307.50;5054277;28;20197;-62
2023/04/28 00:41:21;;;;;;;2.33;2.10;;;;;;;10.54;63.19;98356.72;5054218;28;20177;-62
2023/04/28 00:43:47;;;;;;;5.43;2.38;;;;;;;10.53;62.80;98370.59;5051637;28;20213;-62
2023/04/28 00:46:27;;;;;;;2.17;1.95;;;;;;;10.38;62.91;98333.69;5051800;28;20193;-62
2023/04/28 00:48:53;;;;;;;2.08;1.98;;;;;;;10.57;61.99;98357.34;5051847;28;20316;-62
2023/04/28 00:51:18;;;;;;;2.92;2.15;;;;;;;10.39;62.80;98383.66;5051717;28;20182;-62
2023/04/28 00:53:44;;;;;;;4.50;2.50;;;;;;;10.04;64.42;98354.19;5051643;28;20583;-62
2023/04/28 00:56:10;;;;;;;2.42;2.22;;;;;;;10.33;64.85;98391.84;5051606;28;20284;-62
2023/04/28 00:58:36;;;;;;;4.07;2.30;;;;;;;10.35;65.40;98402.91;5051348;28;20260;-62
2023/04/28 01:01:06;;;;;;;2.83;2.20;;;;;;;9.88;66.56;98335.44;5050441;28;20269;-62
2023/04/28 01:03:41;;;;;;;3.80;2.60;;;;;;;9.92;66.53;98342.06;5051396;28;20217;-62
2023/04/28 01:06:08;;;;;;;3.00;2.35;;;;;;;9.94;65.39;98353.09;5051467;28;20561;-62
2023/04/28 01:08:35;;;;;;;2.88;2.28;;;;;;;9.96;65.27;98369.34;5051340;28;20282;-62
2023/04/28 01:11:01;;;;;;;3.35;2.17;;;;;;;9.86;65.70;98374.28;5051365;28;20220;-62
2023/04/28 01:13:27;;;;;;;2.75;2.55;;;;;;;9.69;66.54;98316.91;5051262;28;20209;-62
2023/04/28 01:15:53;;;;;;;4.03;2.30;;;;;;;10.26;60.86;98382.81;5053226;28;20226;-62
2023/04/28 01:18:19;;;;;;;3.03;2.72;;;;;;;10.14;64.87;98400.00;5053571;28;20201;-62
2023/04/28 01:20:44;;;;;;;4.65;2.33;;;;;;;9.71;63.82;98312.47;5053539;28;20640;-62
2023/04/28 01:23:17;;;;;;;2.38;2.20;;;;;;;10.14;63.00;98370.72;5053390;28;20194;-62
2023/04/28 01:25:43;;;;;;;3.85;2.60;;;;;;;9.99;63.16;98380.28;5053386;28;20181;-62
2023/04/28 01:28:09;;;;;;;3.42;2.75;;;;;;;9.72;59.44;98303.78;5053631;28;20667;-62
2023/04/28 01:30:35;;;;;;;3.53;2.67;;;;;;;10.31;60.99;98391.09;5053337;28;20185;-62
2023/04/28 01:33:02;;;;;;;2.63;2.42;;;;;;;10.61;56.65;98399.34;5053227;28;20239;-62
2023/04/28 01:35:27;;;;;;;3.90;2.30;;;;;;;10.35;56.64;98348.59;5053271;28;20189;-62
2023/04/28 01:37:52;;;;;;;3.15;2.47;;;;;;;10.53;56.25;98386.97;5053198;28;20174;-62
2023/04/28 01:40:18;;;;;;;2.35;2.15;;;;;;;10.30;56.80;98358.41;5052842;28;20189;-62
2023/04/28 01:42:44;;;;;;;3.05;2.72;;;;;;;9.85;60.63;98305.44;5053018;28;20173;-62
2023/04/28 01:45:10;;;;;;;3.75;2.42;;;;;;;9.93;62.00;98328.19;5052799;28;20267;-62
2023/04/28 01:47:35;;;;;;;2.70;2.50;;;;;;;9.68;61.98;98301.50;5053276;28;20182;-62
2023/04/28 01:50:00;;;;;;;3.92;2.28;;;;;;;9.52;64.80;98302.50;5052990;28;20185;-62
2023/04/28 01:52:26;;;;;;;2.90;2.70;;;;;;;9.83;68.52;98378.84;5050336;28;20579;-62
2023/04/28 01:54:52;;;;;;;2.72;2.40;;;;;;;9.60;66.59;98376.94;5050510;28;20235;-62
2023/04/28 01:57:18;;;;;;;2.60;2.40;;;;;;;9.16;66.17;98293.78;5050401;28;20189;-62
2023/04/28 01:59:43;;;;;;;3.60;3.00;;;;;;;9.22;66.52;98318.38;5050288;28;20312;-62
2023/04/28 02:02:09;;;;;;;2.45;2.25;;;;;;;9.47;67.48;98378.66;5050400;28;20197;-62
2023/04/28 02:04:34;;;;;;;2.55;2.40;;;;;;;9.21;68.64;98374.31;5050265;28;20205;-62
2023/04/28 02:06:59;;;;;;;2.88;2.25;;;;;;;9.11;69.14;98338.88;5050278;28;20186;-62
2023/04/28 02:09:25;;;;;;;2.70;2.50;;;;;;;8.80;69.22;98293.53;5050548;28;20186;-62
2023/04/28 02:11:50;;;;;;;3.63;2.70;;;;;;;9.38;68.27;98391.34;5049996;28;20198;-62
2023/04/28 02:14:16;;;;;;;3.22;2.22;;;;;;;9.48;66.97;98388.06;5010436;28;20205;-62
2023/04/28 02:16:41;;;;;;;2.70;2.50;;;;;;;8.93;67.87;98333.13;5010505;28;20661;-62
2023/04/28 02:19:07;;;;;;;3.22;2.30;;;;;;;8.63;66.54;98296.34;5010492;28;20210;-62
2023/04/28 02:21:32;;;;;;;2.97;2.28;;;;;;;8.64;66.52;98299.75;5010443;28;20198;-62
2023/04/28 02:23:57;;;;;;;2.70;2.50;;;;;;;9.10;63.36;98384.47;5024698;28;20349;-62
2023/04/28 02:26:23;;;;;;;2.30;2.20;;;;;;;9.11;63.41;98404.25;5030091;28;20174;-62
2023/04/28 02:28:49;;;;;;;3.75;2.60;;;;;;;8.94;67.24;98386.41;5030076;28;20190;-62
2023/04/28 02:31:14;;;;;;;3.05;2.85;;;;;;;9.10;63.09;98371.59;5030034;28;20260;-62
2023/04/28 02:33:41;;;;;;;2.47;2.30;;;;;;;8.90;62.87;98323.00;5029982;28;20226;-62
2023/04/28 02:36:07;;;;;;;2.28;2.08;;;;;;;8.94;63.44;98306.41;5029998;28;20220;-62
2023/04/28 02:38:33;;;;;;;2.58;2.38;;;;;;;9.00;65.87;98328.41;5030198;28;20598;-62
2023/04/28 02:41:00;;;;;;;2.95;2.35;;;;;;;9.57;66.20;98413.31;5029927;28;20192;-62
2023/04/28 02:43:26;;;;;;;2.63;2.30;;;;;;;9.47;66.98;98414.81;5029806;28;20766;-62
2023/04/28 02:45:52;;;;;;;2.50;2.30;;;;;;;9.40;65.64;98395.47;5046516;28;20194;-62
2023/04/28 02:48:18;;;;;;;2.25;2.10;;;;;;;9.50;61.36;98412.00;5052111;28;20174;-62
2023/04/28 02:50:45;;;;;;;3.17;2.70;;;;;;;9.43;61.90;98405.59;5052120;28;20231;-62
2023/04/28 02:53:10;;;;;;;2.67;2.35;;;;;;;9.74;57.80;98411.25;5049559;28;20204;-62
2023/04/28 02:55:36;;;;;;;2.85;2.30;;;;;;;9.22;61.41;98339.84;5049644;28;20193;-62
2023/04/28 02:58:01;;;;;;;2.47;2.28;;;;;;;9.72;61.83;98427.78;5049444;28;20225;-62
2023/04/28 03:00:27;;;;;;;2.50;2.30;;;;;;;9.50;60.20;98393.94;5049625;28;20170;-63
2023/04/28 03:02:53;;;;;;;2.83;2.30;;;;;;;8.89;64.31;98339.41;5049525;28;20186;-62
2023/04/28 03:05:18;;;;;;;3.90;2.20;;;;;;;9.18;59.95;98368.53;5049588;28;20645;-62
2023/04/28 03:07:44;;;;;;;2.72;2.50;;;;;;;9.23;58.30;98340.66;5049833;28;20252;-62
2023/04/28 03:10:09;;;;;;;3.65;2.60;;;;;;;9.30;63.04;98378.91;5049492;28;20209;-62
2023/04/28 03:12:35;;;;;;;3.97;2.00;;;;;;;9.19;64.26;98386.50;5049500;28;20763;-62
2023/04/28 03:15:00;;;;;;;2.28;2.08;;;;;;;8.52;66.18;98350.34;5049464;28;20186;-62
2023/04/28 03:17:26;;;;;;;3.35;2.40;;;;;;;8.64;66.70;98362.50;5049461;28;20174;-62
2023/04/28 03:19:51;;;;;;;2.80;2.60;;;;;;;8.84;67.33;98395.63;5049412;28;20725;-62
2023/04/28 03:22:17;;;;;;;3.67;2.30;;;;;;;9.13;64.58;98414.44;5049414;28;20192;-62
2023/04/28 03:24:42;;;;;;;2.53;2.33;;;;;;;9.33;61.49;98432.91;5052754;28;20423;-62
2023/04/28 03:27:08;;;;;;;5.13;3.13;;;;;;;9.12;59.27;98385.25;5055394;28;20177;-62
2023/04/28 03:29:33;;;;;;;4.13;2.65;;;;;;;9.29;62.88;98425.47;5055646;28;20166;-62
2023/04/28 03:31:58;;;;;;;3.28;2.70;;;;;;;9.25;64.71;98435.16;5055605;28;20173;-62
2023/04/28 03:34:24;;;;;;;2.72;2.53;;;;;;;9.26;65.32;98429.06;5055245;28;20182;-62
2023/04/28 03:36:49;;;;;;;4.45;2.38;;;;;;;8.81;65.79;98382.94;5055536;28;20177;-62
2023/04/28 03:39:15;;;;;;;3.38;2.25;;;;;;;8.83;66.85;98406.03;5055460;28;20205;-62
2023/04/28 03:41:40;;;;;;;4.47;2.40;;;;;;;8.83;65.96;98391.38;5055348;28;20177;-62
2023/04/28 03:44:06;;;;;;;3.00;2.30;;;;;;;8.66;66.44;98378.69;5055292;28;20285;-62
2023/04/28 03:46:33;;;;;;;3.67;2.45;;;;;;;9.20;67.22;98459.63;5055303;28;20185;-62
2023/04/28 03:49:00;;;;;;;3.75;2.95;;;;;;;8.63;66.87;98376.28;5055288;28;20177;-62
2023/04/28 03:51:26;;;;;;;2.63;2.42;;;;;;;9.29;65.65;98465.03;5055211;28;20178;-62
2023/04/28 03:53:52;;;;;;;2.60;2.40;;;;;;;9.22;65.99;98453.44;5055187;28;20182;-62
2023/04/28 03:56:17;;;;;;;3.22;2.92;;;;;;;9.14;63.12;98445.31;5055083;28;20188;-62
2023/04/28 03:58:43;;;;;;;5.93;3.05;;;;;;;8.93;65.19;98405.38;5055159;28;20587;-62
2023/04/28 04:01:08;;;;;;;3.22;2.80;;;;;;;9.31;67.12;98477.84;5055350;28;20170;-62
2023/04/28 04:03:33;;;;;;;8.25;2.97;;;;;;;9.34;66.56;98472.47;5054900;28;20190;-62
2023/04/28 04:05:59;;;;;;;8.48;3.28;;;;;;;9.55;66.39;98502.97;5054969;28;20239;-62
2023/04/28 04:08:25;;;;;;;4.38;3.30;;;;;;;9.63;67.05;98499.91;5054834;28;20170;-65
2023/04/28 04:10:51;;;;;;;4.13;3.30;;;;;;;9.44;67.51;98469.22;5052255;28;20198;-62
2023/04/28 04:13:16;;;;;;;3.70;3.40;;;;;;;9.32;67.50;98427.88;5052314;28;20680;-62
2023/04/28 04:15:42;;;;;;;4.68;3.00;;;;;;;9.51;67.38;98449.84;5052269;28;20196;-62
2023/04/28 04:18:07;;;;;;;3.13;2.90;;;;;;;9.69;68.43;98487.44;5052432;28;20676;-64
2023/04/28 04:20:33;;;;;;;3.45;3.03;;;;;;;9.82;69.69;98514.13;5032149;28;20198;-63
2023/04/28 04:22:58;;;;;;;3.33;3.03;;;;;;;9.88;70.09;98508.56;5032225;28;20203;-61
2023/04/28 04:25:24;;;;;;;3.15;2.85;;;;;;;9.94;71.01;98526.28;5032280;28;20202;-62
2023/04/28 04:27:49;;;;;;;5.47;2.83;;;;;;;9.45;70.31;98449.41;5032254;28;20307;-62
2023/04/28 04:30:14;;;;;;;3.45;3.00;;;;;;;9.43;70.33;98441.75;5032191;28;20189;-62
2023/04/28 04:32:40;;;;;;;2.90;2.65;;;;;;;9.76;69.54;98489.50;5032125;28;20178;-63
2023/04/28 04:35:06;;;;;;;3.33;3.05;;;;;;;9.94;71.05;98534.03;5031916;28;20195;-63
2023/04/28 04:37:32;;;;;;;2.83;2.63;;;;;;;9.52;70.18;98498.81;5031995;28;20186;-63
2023/04/28 04:39:57;;;;;;;3.22;3.03;;;;;;;9.31;70.77;98447.69;5032011;28;20182;-63
2023/04/28 04:42:23;;;;;;;5.55;4.63;;;;;;;9.52;69.12;98481.66;5046623;28;20258;-63
2023/04/28 04:44:48;;;;;;;3.42;2.53;;;;;;;9.43;69.72;98501.13;5051791;28;20698;-63
2023/04/28 04:47:13;;;;;;;3.28;3.00;;;;;;;9.81;70.13;98538.31;5051796;28;20757;-63
2023/04/28 04:49:39;;;;;;;3.08;2.80;;;;;;;9.88;68.06;98514.56;5051778;28;20186;-63
2023/04/28 04:52:05;;;;;;;3.65;2.85;;;;;;;10.08;64.57;98514.16;5053227;28;20186;-63
2023/04/28 04:54:31;;;;;;;5.40;2.90;;;;;;;10.02;64.72;98472.31;5054078;28;20235;-63
2023/04/28 04:56:56;;;;;;;3.30;3.00;;;;;;;10.51;64.46;98532.88;5053752;28;20181;-62
2023/04/28 04:59:22;;;;;;;3.30;2.92;;;;;;;10.29;61.82;98480.88;5053680;28;20635;-62
2023/04/28 05:01:47;;;;;;;3.40;2.63;;;;;;;10.59;54.06;98491.78;5053939;28;20170;-61
2023/04/28 05:04:12;;;;;;;2.72;2.28;;;;;;;10.95;49.21;98521.19;5053771;28;20209;-61
2023/04/28 05:06:39;;;;;;;2.40;1.83;;;;;;;11.02;48.03;98511.22;5054109;28;20600;-61
2023/04/28 05:09:04;;;;;;;5.07;2.05;;;;;;;11.21;47.14;98540.09;5053817;28;20554;-61
2023/04/28 05:11:30;;;;;;;2.17;1.90;;;;;;;11.27;47.11;98545.66;5053726;28;20178;-61
2023/04/28 05:13:55;;;;;;;2.42;2.17;;;;;;;11.47;46.76;98567.63;5053723;28;20188;-61
2023/04/28 05:16:21;;;;;;;3.35;2.45;;;;;;;11.64;46.11;98575.06;5053661;28;20219;-62
2023/04/28 05:18:47;;;;;;;2.67;1.90;;;;;;;11.55;45.43;98554.97;5053615;28;20174;-61
2023/04/28 05:21:12;;;;;;;3.33;2.10;;;;;;;11.79;46.47;98581.78;5053535;28;20547;-61
2023/04/28 05:23:37;;;;;;;4.40;2.00;;;;;;;11.47;45.05;98513.19;5053467;28;20288;-62
2023/04/28 05:26:03;;;;;;;2.25;1.83;;;;;;;11.75;45.35;98544.88;5053730;28;20193;-61
2023/04/28 05:28:29;;;;;;;2.60;2.40;;;;;;;11.75;44.95;98534.50;5053428;28;20178;-61
2023/04/28 05:30:55;;;;;;;5.03;2.10;;;;;;;12.03;45.13;98577.44;5053340;28;20569;-61
2023/04/28 05:33:22;;;;;;;2.28;1.70;;;;;;;11.85;45.57;98532.91;5053311;28;20181;-61
2023/04/28 05:35:48;;;;;;;2.80;1.63;;;;;;;12.26;44.49;98589.59;5053258;28;20239;-61
2023/04/28 05:38:13;;;;;;;3.67;1.67;;;;;;;11.93;43.95;98540.13;5053230;28;20726;-61
2023/04/28 05:40:38;;;;;;;1.92;1.70;;;;;;;12.00;44.10;98554.31;5053198;28;20217;-62
2023/04/28 05:43:04;;;;;;;2.92;1.83;;;;;;;12.01;44.13;98550.81;5053075;28;20225;-61
2023/04/28 05:45:29;;;;;;;2.83;1.90;;;;;;;12.09;43.78;98553.66;5053100;28;20185;-61
2023/04/28 05:47:55;;;;;;;4.78;1.90;;;;;;;12.14;43.97;98556.75;5052449;28;20215;-61
2023/04/28 05:50:20;;;;;;;4.07;1.75;;;;;;;12.20;43.07;98558.91;5053015;28;20222;-61
2023/04/28 05:52:46;;;;;;;3.05;1.83;;;;;;;11.92;43.71;98515.16;5052922;28;20177;-61
2023/04/28 05:55:11;;;;;;;2.50;1.75;;;;;;;12.57;42.76;98607.16;5052927;28;20177;-61
2023/04/28 05:57:36;;;;;;;3.47;1.70;;;;;;;12.50;42.50;98590.38;5052748;28;20174;-61
2023/04/28 06:00:02;;;;;;;1.85;1.63;;;;;;;12.61;43.10;98606.81;5052843;28;20185;-61
2023/04/28 06:02:28;;;;;;;2.33;1.48;;;;;;;12.40;42.08;98573.81;5052800;28;20174;-61
2023/04/28 06:04:53;;;;;;;1.63;1.50;;;;;;;12.52;42.50;98585.91;5052483;28;20285;-61
2023/04/28 06:07:18;;;;;;;2.85;1.88;;;;;;;12.43;41.45;98565.84;5052287;28;20287;-61
2023/04/28 06:09:44;;;;;;;2.78;2.03;;;;;;;12.19;42.02;98526.13;5052076;28;20648;-61
2023/04/28 06:12:09;;;;;;;3.72;2.17;;;;;;;12.48;42.43;98548.16;5052384;28;20206;-61
2023/04/28 06:14:36;;;;;;;1.90;1.65;;;;;;;12.72;41.46;98585.28;5049698;28;20684;-61
2023/04/28 06:17:02;;;;;;;2.45;1.60;;;;;;;12.55;42.09;98564.94;5050160;28;20190;-61
2023/04/28 06:19:28;;;;;;;4.32;1.90;;;;;;;12.76;41.94;98587.53;5050025;28;20227;-61
2023/04/28 06:21:53;;;;;;;4.22;2.13;;;;;;;12.85;41.88;98599.00;5050109;28;20178;-62
2023/04/28 06:24:18;;;;;;;2.47;1.42;;;;;;;13.01;41.47;98625.53;5049917;28;20198;-62
2023/04/28 06:26:44;;;;;;;14.93;2.45;;;;;;;12.54;41.36;98537.31;5049751;28;20185;-62
2023/04/28 06:29:10;;;;;;;2.17;1.60;;;;;;;12.57;41.56;98537.94;5049931;28;20173;-62
2023/04/28 06:31:35;;;;;;;2.00;1.63;;;;;;;13.17;41.10;98620.81;5048935;28;20174;-62
2023/04/28 06:34:00;;;;;;;2.40;2.20;;;;;;;13.05;41.17;98582.75;5049574;28;20177;-62
2023/04/28 06:36:27;;;;;;;3.63;1.88;;;;;;;12.84;40.66;98535.03;5049617;28;20186;-62
2023/04/28 06:38:52;;;;;;;4.65;1.85;;;;;;;12.96;41.33;98544.50;5049455;28;20192;-62
2023/04/28 06:41:18;;;;;;;3.80;2.22;;;;;;;13.46;41.20;98602.06;5049282;28;20177;-62
2023/04/28 06:43:43;;;;;;;6.47;1.88;;;;;;;13.39;42.18;98594.84;5048652;28;20189;-62
2023/04/28 06:46:10;;;;;;;4.22;1.88;;;;;;;13.10;41.41;98539.09;5049465;28;20200;-62
2023/04/28 06:48:35;;;;;;;2.05;1.70;;;;;;;13.69;41.84;98614.09;5049665;28;20667;-62
2023/04/28 06:51:01;;;;;;;1.95;1.77;;;;;;;13.34;41.37;98545.00;5049894;28;20178;-62
2023/04/28 06:53:26;;;;;;;2.42;1.90;;;;;;;13.80;41.47;98619.31;5051890;28;20170;-62
2023/04/28 06:55:52;;;;;;;1.67;1.58;;;;;;;13.89;41.83;98625.56;5051732;28;20181;-62
2023/04/28 06:58:18;;;;;;;3.45;2.13;;;;;;;14.03;42.26;98633.09;5051661;28;20190;-62
2023/04/28 07:00:43;;;;;;;2.75;1.63;;;;;;;13.35;41.89;98541.47;5055682;28;20260;-62
2023/04/28 07:03:09;;;;;;;2.38;1.70;;;;;;;13.88;41.72;98623.91;5056087;28;20251;-62
2023/04/28 07:05:35;;;;;;;2.25;1.80;;;;;;;13.90;41.90;98612.44;5056096;28;20212;-62
2023/04/28 07:08:00;;;;;;;3.67;2.28;;;;;;;14.09;41.59;98633.44;5054916;28;20285;-61
2023/04/28 07:10:26;;;;;;;2.28;2.08;;;;;;;13.79;42.20;98572.59;5053823;28;20690;-62
2023/04/28 07:12:51;;;;;;;1.90;1.80;;;;;;;13.71;41.28;98559.38;5055781;28;20185;-62
2023/04/28 07:15:17;;;;;;;2.08;1.77;;;;;;;14.25;41.34;98635.69;5055632;28;20178;-62
2023/04/28 07:17:42;;;;;;;3.72;1.75;;;;;;;13.86;41.67;98560.75;5056165;28;20604;-62
2023/04/28 07:20:08;;;;;;;6.32;1.80;;;;;;;14.44;41.42;98628.06;5055861;28;20206;-62
2023/04/28 07:22:33;;;;;;;2.33;1.98;;;;;;;14.50;40.54;98622.34;5055859;28;20205;-61
2023/04/28 07:24:59;;;;;;;2.65;1.67;;;;;;;14.34;40.54;98593.31;5073138;28;20699;-62
2023/04/28 07:27:24;;;;;;;5.05;2.13;;;;;;;14.51;40.08;98621.41;5073588;28;20189;-60
2023/04/28 07:29:50;;;;;;;8.35;1.77;;;;;;;14.37;40.86;98585.25;5073603;28;20185;-60
2023/04/28 07:32:15;;;;;;;1.80;1.48;;;;;;;14.25;40.74;98566.25;5073233;28;20217;-61
2023/04/28 07:34:40;;;;;;;3.42;1.98;;;;;;;14.17;40.93;98557.38;5073191;28;20260;-60
2023/04/28 07:37:06;;;;;;;2.33;1.50;;;;;;;14.68;41.14;98642.53;5073104;28;20188;-61
2023/04/28 07:39:33;;;;;;;2.15;1.92;;;;;;;14.32;41.01;98561.34;5073011;28;20220;-61
2023/04/28 07:42:01;;;;;;;4.38;1.95;;;;;;;14.84;40.89;98636.88;5072954;28;20750;-61
2023/04/28 07:44:27;;;;;;;2.72;2.10;;;;;;;14.79;41.06;98610.38;5072830;28;20307;-61
2023/04/28 07:46:52;;;;;;;6.63;2.30;;;;;;;14.93;41.08;98613.50;5070148;28;20272;-61
2023/04/28 07:49:18;;;;;;;4.85;2.03;;;;;;;14.65;39.86;98554.22;5072909;28;20650;-61
2023/04/28 07:51:43;;;;;;;2.40;2.03;;;;;;;15.24;39.70;98632.63;5072817;28;20204;-62
2023/04/28 07:54:09;;;;;;;2.60;1.75;;;;;;;15.28;39.57;98634.84;5072830;28;20211;-62
2023/04/28 07:56:34;;;;;;;3.05;2.00;;;;;;;15.23;40.02;98607.53;5059147;28;20269;-62
2023/04/28 07:59:00;;;;;;;3.97;1.92;;;;;;;15.26;39.89;98602.03;5055218;28;20185;-62
2023/04/28 08:01:26;;;;;;;1.83;1.40;;;;;;;15.56;39.71;98638.63;5055050;28;20181;-61
2023/04/28 08:03:51;;;;;;;3.10;1.63;;;;;;;15.08;38.62;98564.50;5055171;28;20197;-62
2023/04/28 08:06:17;;;;;;;6.03;1.90;;;;;;;15.26;38.45;98584.63;5054972;28;20714;-61
2023/04/28 08:08:43;;;;;;;2.38;1.77;;;;;;;15.55;38.53;98623.91;5054968;28;20186;-62
2023/04/28 08:11:08;;;;;;;5.70;1.95;;;;;;;15.66;38.47;98626.41;5054340;28;20556;-62
2023/04/28 08:13:34;;;;;;;3.42;2.28;;;;;;;15.65;38.75;98643.88;5054822;28;20177;-62
2023/04/28 08:15:59;;;;;;;3.58;2.08;;;;;;;15.25;38.07;98609.06;5054790;28;20178;-61
2023/04/28 08:18:26;;;;;;;2.17;1.70;;;;;;;15.17;38.06;98587.19;5054475;28;20260;-62
2023/04/28 08:20:54;;;;;;;2.20;1.98;;;;;;;15.23;37.93;98591.88;5054685;28;20174;-62
2023/04/28 08:23:20;;;;;;;3.13;1.75;;;;;;;15.32;37.31;98598.91;5054290;28;20675;-62
2023/04/28 08:25:48;;;;;;;4.57;1.80;;;;;;;15.49;38.45;98620.03;5054613;28;20276;-61
2023/04/28 08:28:14;;;;;;;3.15;2.40;;;;;;;15.33;38.49;98592.81;5035770;28;20185;-61
2023/04/28 08:30:40;;;;;;;4.53;1.98;;;;;;;15.53;37.90;98636.25;5054536;28;20667;-61
2023/04/28 08:33:05;;;;;;;4.53;2.35;;;;;;;15.37;37.52;98570.72;5054488;28;20235;-62
2023/04/28 08:35:31;;;;;;;6.00;1.92;;;;;;;15.65;38.60;98609.13;5054437;28;20261;-62
2023/04/28 08:37:56;;;;;;;2.75;2.00;;;;;;;15.81;38.29;98625.13;5054400;28;20228;-62
2023/04/28 08:40:23;;;;;;;5.63;2.33;;;;;;;15.84;37.69;98627.44;5054374;28;20181;-62
2023/04/28 08:42:48;;;;;;;4.65;2.80;;;;;;;15.62;38.32;98572.88;5054221;28;20174;-62
2023/04/28 08:45:14;;;;;;;2.90;2.20;;;;;;;15.81;38.74;98585.97;5054303;28;20181;-62
2023/04/28 08:47:44;;;;;;;6.93;2.20;;;;;;;16.22;37.76;98625.75;5054212;28;20189;-62
2023/04/28 08:50:14;;;;;;;4.05;2.15;;;;;;;15.92;37.23;98565.00;5054142;28;20174;-61
2023/04/28 08:52:41;;;;;;;3.60;2.03;;;;;;;15.86;37.11;98539.44;5054103;28;20242;-61
2023/04/28 08:55:11;;;;;;;2.30;2.08;;;;;;;15.92;37.66;98536.28;5054095;28;20204;-61
2023/04/28 08:57:41;;;;;;;3.38;2.28;;;;;;;16.36;38.27;98614.09;5053851;28;20170;-61
2023/04/28 09:00:07;;;;;;;3.25;1.83;;;;;;;16.37;37.57;98605.31;5054066;28;20218;-62
2023/04/28 09:02:33;;;;;;;2.45;2.10;;;;;;;15.96;38.26;98524.59;5053963;28;20634;-61
2023/04/28 09:04:58;;;;;;;3.55;2.63;;;;;;;16.14;38.45;98549.06;5053856;28;20197;-62
2023/04/28 09:07:24;;;;;;;2.60;2.22;;;;;;;16.44;37.37;98578.53;5053867;28;20231;-61
2023/04/28 09:09:49;;;;;;;4.45;1.95;;;;;;;16.20;37.92;98574.66;5053795;28;20180;-62
2023/04/28 09:12:15;;;;;;;3.47;2.22;;;;;;;16.08;38.41;98532.19;5054004;28;20219;-62
2023/04/28 09:14:40;;;;;;;3.58;2.10;;;;;;;16.18;38.07;98533.03;5053654;28;20246;-62
2023/04/28 09:17:11;;;;;;;4.50;2.20;;;;;;;16.62;38.21;98595.16;5053949;28;20522;-62
2023/04/28 09:19:38;;;;;;;3.60;2.10;;;;;;;16.73;38.06;98589.81;5053559;28;20177;-62
2023/04/28 09:22:04;;;;;;;3.13;2.00;;;;;;;16.84;37.60;98583.63;5052629;28;20212;-62
2023/04/28 09:24:31;;;;;;;5.45;2.30;;;;;;;16.97;37.70;98599.84;5050891;28;20378;-62
2023/04/28 09:27:01;;;;;;;5.55;2.28;;;;;;;16.90;38.96;98593.53;5051048;28;20212;-62
2023/04/28 09:29:27;;;;;;;3.80;2.65;;;;;;;16.88;40.37;98571.91;5051007;28;20272;-61
2023/04/28 09:31:53;;;;;;;4.07;2.85;;;;;;;17.04;40.09;98585.22;5050903;28;20185;-62
2023/04/28 09:34:21;;;;;;;5.13;2.97;;;;;;;16.91;40.29;98566.41;5050939;28;20189;-62
2023/04/28 09:36:47;;;;;;;7.53;3.03;;;;;;;16.37;39.63;98529.56;5011076;28;20286;-61
2023/04/28 09:39:12;;;;;;;3.63;2.72;;;;;;;16.79;40.77;98588.44;5011128;28;20737;-61
2023/04/28 09:41:40;;;;;;;4.93;2.63;;;;;;;16.62;40.61;98591.75;5011131;28;20187;-62
2023/04/28 09:44:13;;;;;;;4.88;2.60;;;;;;;16.77;40.01;98577.28;5010993;28;20579;-62
2023/04/28 09:46:39;;;;;;;5.70;2.95;;;;;;;16.77;39.84;98541.53;5011041;28;20705;-61
2023/04/28 09:49:04;;;;;;;5.78;3.30;;;;;;;16.96;40.93;98583.31;5010848;28;20218;-61
2023/04/28 09:51:30;;;;;;;7.15;3.47;;;;;;;16.78;40.97;98521.44;5010937;28;20281;-61
2023/04/28 09:53:59;;;;;;;5.13;2.78;;;;;;;16.78;39.63;98503.97;5010895;28;20229;-61
2023/04/28 09:56:26;;;;;;;4.63;2.70;;;;;;;16.91;38.88;98482.78;5028400;28;20193;-61
2023/04/28 09:58:53;;;;;;;4.13;3.25;;;;;;;17.39;39.61;98557.50;5030363;28;20280;-62
2023/04/28 10:01:19;;;;;;;5.80;3.28;;;;;;;17.22;40.54;98549.53;5030520;28;20186;-61
2023/04/28 10:03:45;;;;;;;4.47;2.80;;;;;;;16.99;41.95;98549.06;5030395;28;20296;-61
2023/04/28 10:06:10;;;;;;;5.68;3.50;;;;;;;16.94;40.80;98553.88;5030486;28;20261;-61
2023/04/28 10:08:36;;;;;;;5.78;3.58;;;;;;;17.03;41.00;98562.66;5063964;28;20188;-61
2023/04/28 10:11:02;;;;;;;4.90;3.65;;;;;;;16.67;40.72;98490.25;5070278;28;20643;-61
2023/04/28 10:13:28;;;;;;;4.15;2.83;;;;;;;17.07;41.42;98551.78;5070143;28;20233;-61
2023/04/28 10:15:54;;;;;;;7.57;3.38;;;;;;;16.99;40.85;98558.69;5070185;28;20237;-61
2023/04/28 10:18:22;;;;;;;6.10;2.67;;;;;;;16.86;39.81;98564.19;5070160;28;20188;-61
2023/04/28 10:20:49;;;;;;;5.15;2.90;;;;;;;16.31;38.77;98472.66;5055665;28;20197;-61
2023/04/28 10:23:41;;;;;;;4.05;2.67;;;;;;;16.52;40.18;98562.19;5052358;28;20189;-61
2023/04/28 10:26:13;;;;;;;5.72;3.05;;;;;;;16.59;40.29;98534.53;5052449;28;20185;-61
2023/04/28 10:28:49;;;;;;;6.07;3.72;;;;;;;16.86;41.47;98553.75;5052458;28;20541;-61
2023/04/28 10:31:20;;;;;;;6.45;3.33;;;;;;;16.61;41.85;98475.16;5052382;28;20169;-61
2023/04/28 10:33:46;;;;;;;6.00;3.40;;;;;;;16.92;40.89;98531.47;5052091;28;20161;-61
2023/04/28 10:36:49;;;;;;;5.68;3.38;;;;;;;17.22;42.09;98539.91;5052217;28;20213;-61
2023/04/28 10:39:15;;;;;;;2.97;2.78;;;;;;;17.23;41.65;98514.56;5052245;28;20659;-61
2023/04/28 10:41:41;;;;;;;4.97;3.28;;;;;;;17.25;41.39;98516.06;5052197;28;20174;-61
2023/04/28 10:44:32;;;;;;;4.45;2.88;;;;;;;17.44;41.23;98539.56;5052072;28;20203;-61
2023/04/28 10:47:02;;;;;;;4.43;2.85;;;;;;;17.79;40.41;98518.72;5052046;28;20665;-61
2023/04/28 10:50:00;;;;;;;3.15;2.85;;;;;;;18.34;38.56;98532.53;5052084;28;20226;-61
2023/04/28 10:52:41;;;;;;;3.88;3.25;;;;;;;18.78;37.49;98545.53;5052073;28;20200;-61
2023/04/28 10:55:32;;;;;;;3.53;2.92;;;;;;;18.87;37.08;98505.28;5052135;28;20173;-61
2023/04/28 10:58:15;;;;;;;3.88;3.05;;;;;;;18.95;37.04;98541.25;5051939;28;20193;-62
2023/04/28 11:00:42;;;;;;;3.72;2.92;;;;;;;18.77;37.60;98511.63;5051733;28;20618;-62
2023/04/28 11:03:07;;;;;;;3.75;3.20;;;;;;;18.66;36.79;98485.66;5051957;28;20184;-62
2023/04/28 11:05:34;;;;;;;4.20;2.88;;;;;;;18.53;35.87;98488.66;5052015;28;20234;-62
2023/04/28 11:08:18;;;;;;;4.20;2.90;;;;;;;18.40;37.87;98524.09;5051983;28;20173;-62
2023/04/28 11:11:15;;;;;;;5.22;3.20;;;;;;;18.62;37.59;98519.22;5051981;28;20519;-62
2023/04/28 11:13:42;;;;;;;5.32;2.90;;;;;;;18.36;37.36;98449.41;5051903;28;20264;-62
2023/04/28 11:16:08;;;;;;;4.88;2.95;;;;;;;18.85;37.64;98506.41;5051914;28;20178;-62
2023/04/28 11:18:58;;;;;;;3.15;2.55;;;;;;;18.79;35.28;98454.59;5052048;28;20267;-62
2023/04/28 11:21:25;;;;;;;3.00;2.30;;;;;;;19.11;34.85;98504.63;5051830;28;20184;-62
2023/04/28 11:23:51;;;;;;;2.85;2.50;;;;;;;19.24;33.66;98468.31;5051768;28;20192;-62
2023/04/28 11:26:18;;;;;;;2.72;2.15;;;;;;;19.36;33.84;98474.91;5051803;28;20177;-62
2023/04/28 11:28:52;;;;;;;7.50;3.35;;;;;;;19.54;34.46;98522.88;5051234;28;20182;-62
2023/04/28 11:31:21;;;;;;;4.63;2.78;;;;;;;19.56;34.35;98502.53;5051619;28;20200;-62
2023/04/28 11:33:51;;;;;;;6.93;2.58;;;;;;;19.84;34.32;98519.72;5051517;28;20189;-62